sensor_id;sensor_type;location;lat;lon;timestamp;P1;durP1;ratioP1;P2;durP2;ratioP2
37847;SDS011;23688;33.130;-117.188;2022-10-16T00:00:40;10.73;;;3.63;;
37847;SDS011;23688;33.130;-117.188;2022-10-16T00:03:07;8.13;;;2.60;;
37847;SDS011;23688;33.130;-117.188;2022-10-16T00:05:43;6.72;;;2.85;;
37847;SDS011;23688;33.130;-117.188;2022-10-16T00:08:11;7.65;;;2.70;;
37847;SDS011;23688;33.130;-117.188;2022-10-16T00:10:38;5.18;;;2.72;;
37847;SDS011;23688;33.130;-117.188;2022-10-16T00:13:05;8.43;;;3.08;;
37847;SDS011;23688;33.130;-117.188;2022-10-16T00:15:34;7.50;;;2.63;;
37847;SDS011;23688;33.130;-117.188;2022-10-16T00:18:02;8.57;;;3.10;;
37847;SDS011;23688;33.130;-117.188;2022-10-16T00:22:59;8.60;;;3.42;;
37847;SDS011;23688;33.130;-117.188;2022-10-16T00:25:25;7.22;;;2.83;;
37847;SDS011;23688;33.130;-117.188;2022-10-16T00:27:52;9.90;;;2.70;;
37847;SDS011;23688;33.130;-117.188;2022-10-16T00:30:18;10.82;;;3.70;;
37847;SDS011;23688;33.130;-117.188;2022-10-16T00:32:44;9.00;;;3.00;;
37847;SDS011;23688;33.130;-117.188;2022-10-16T00:35:11;11.75;;;2.97;;
37847;SDS011;23688;33.130;-117.188;2022-10-16T00:37:37;6.80;;;3.03;;
37847;SDS011;23688;33.130;-117.188;2022-10-16T00:40:03;10.05;;;4.00;;
37847;SDS011;23688;33.130;-117.188;2022-10-16T00:42:32;9.30;;;4.15;;
37847;SDS011;23688;33.130;-117.188;2022-10-16T00:45:01;9.40;;;4.75;;
37847;SDS011;23688;33.130;-117.188;2022-10-16T00:50:38;16.20;;;5.72;;
37847;SDS011;23688;33.130;-117.188;2022-10-16T00:53:01;11.50;;;3.42;;
37847;SDS011;23688;33.130;-117.188;2022-10-16T00:55:28;7.10;;;3.25;;
37847;SDS011;23688;33.130;-117.188;2022-10-16T00:57:56;10.65;;;3.70;;
37847;SDS011;23688;33.130;-117.188;2022-10-16T01:00:25;12.25;;;4.15;;
37847;SDS011;23688;33.130;-117.188;2022-10-16T01:02:56;9.38;;;3.28;;
37847;SDS011;23688;33.130;-117.188;2022-10-16T01:05:44;11.77;;;4.13;;
37847;SDS011;23688;33.130;-117.188;2022-10-16T01:08:22;9.25;;;3.20;;
37847;SDS011;23688;33.130;-117.188;2022-10-16T01:11:12;6.10;;;2.80;;
37847;SDS011;23688;33.130;-117.188;2022-10-16T01:13:49;7.35;;;2.97;;
37847;SDS011;23688;33.130;-117.188;2022-10-16T01:19:47;7.57;;;3.35;;
37847;SDS011;23688;33.130;-117.188;2022-10-16T01:22:55;7.75;;;3.53;;
37847;SDS011;23688;33.130;-117.188;2022-10-16T01:28:38;7.55;;;3.22;;
37847;SDS011;23688;33.130;-117.188;2022-10-16T01:31:29;9.40;;;3.35;;
37847;SDS011;23688;33.130;-117.188;2022-10-16T01:34:15;10.15;;;3.42;;
37847;SDS011;23688;33.130;-117.188;2022-10-16T01:36:48;9.52;;;3.15;;
37847;SDS011;23688;33.130;-117.188;2022-10-16T01:39:20;5.75;;;2.65;;
37847;SDS011;23688;33.130;-117.188;2022-10-16T01:41:52;6.80;;;3.55;;
37847;SDS011;23688;33.130;-117.188;2022-10-16T01:44:29;8.98;;;3.53;;
37847;SDS011;23688;33.130;-117.188;2022-10-16T01:47:01;9.25;;;4.18;;
37847;SDS011;23688;33.130;-117.188;2022-10-16T01:49:33;9.98;;;4.75;;
37847;SDS011;23688;33.130;-117.188;2022-10-16T01:52:02;12.07;;;3.72;;
37847;SDS011;23688;33.130;-117.188;2022-10-16T01:54:33;13.50;;;4.30;;
37847;SDS011;23688;33.130;-117.188;2022-10-16T01:57:04;11.82;;;3.80;;
37847;SDS011;23688;33.130;-117.188;2022-10-16T01:59:34;11.35;;;3.60;;
37847;SDS011;23688;33.130;-117.188;2022-10-16T02:02:06;10.50;;;3.95;;
37847;SDS011;23688;33.130;-117.188;2022-10-16T02:04:39;8.80;;;3.80;;
37847;SDS011;23688;33.130;-117.188;2022-10-16T02:07:19;14.27;;;4.47;;
37847;SDS011;23688;33.130;-117.188;2022-10-16T02:09:46;14.45;;;4.68;;
37847;SDS011;23688;33.130;-117.188;2022-10-16T02:12:31;13.02;;;4.45;;
37847;SDS011;23688;33.130;-117.188;2022-10-16T02:15:02;11.05;;;4.40;;
37847;SDS011;23688;33.130;-117.188;2022-10-16T02:17:30;7.68;;;4.10;;
37847;SDS011;23688;33.130;-117.188;2022-10-16T02:19:57;11.98;;;5.00;;
37847;SDS011;23688;33.130;-117.188;2022-10-16T02:27:33;11.20;;;4.85;;
37847;SDS011;23688;33.130;-117.188;2022-10-16T02:30:09;14.05;;;4.40;;
37847;SDS011;23688;33.130;-117.188;2022-10-16T02:33:00;8.90;;;4.53;;
37847;SDS011;23688;33.130;-117.188;2022-10-16T02:35:29;11.70;;;4.28;;
37847;SDS011;23688;33.130;-117.188;2022-10-16T02:37:57;10.75;;;4.25;;
37847;SDS011;23688;33.130;-117.188;2022-10-16T02:40:24;7.85;;;3.97;;
37847;SDS011;23688;33.130;-117.188;2022-10-16T02:42:52;10.88;;;3.45;;
37847;SDS011;23688;33.130;-117.188;2022-10-16T02:45:22;9.93;;;3.60;;
37847;SDS011;23688;33.130;-117.188;2022-10-16T02:47:49;10.77;;;4.38;;
37847;SDS011;23688;33.130;-117.188;2022-10-16T02:50:15;19.65;;;4.38;;
37847;SDS011;23688;33.130;-117.188;2022-10-16T02:52:42;12.55;;;4.78;;
37847;SDS011;23688;33.130;-117.188;2022-10-16T02:55:09;10.68;;;4.13;;
37847;SDS011;23688;33.130;-117.188;2022-10-16T02:57:35;11.07;;;4.00;;
37847;SDS011;23688;33.130;-117.188;2022-10-16T03:00:03;12.43;;;5.00;;
37847;SDS011;23688;33.130;-117.188;2022-10-16T03:02:30;9.38;;;3.97;;
37847;SDS011;23688;33.130;-117.188;2022-10-16T03:04:57;10.35;;;4.10;;
37847;SDS011;23688;33.130;-117.188;2022-10-16T03:07:23;8.90;;;4.45;;
37847;SDS011;23688;33.130;-117.188;2022-10-16T03:09:49;11.07;;;4.70;;
37847;SDS011;23688;33.130;-117.188;2022-10-16T03:12:16;9.82;;;5.68;;
37847;SDS011;23688;33.130;-117.188;2022-10-16T03:14:42;9.20;;;4.65;;
37847;SDS011;23688;33.130;-117.188;2022-10-16T03:17:08;10.60;;;4.40;;
37847;SDS011;23688;33.130;-117.188;2022-10-16T03:19:35;10.48;;;4.07;;
37847;SDS011;23688;33.130;-117.188;2022-10-16T03:22:01;9.27;;;4.68;;
37847;SDS011;23688;33.130;-117.188;2022-10-16T03:24:28;12.32;;;4.28;;
37847;SDS011;23688;33.130;-117.188;2022-10-16T03:26:54;5.90;;;4.00;;
37847;SDS011;23688;33.130;-117.188;2022-10-16T03:29:20;10.05;;;4.97;;
37847;SDS011;23688;33.130;-117.188;2022-10-16T03:31:48;11.30;;;4.25;;
37847;SDS011;23688;33.130;-117.188;2022-10-16T03:34:15;9.75;;;5.53;;
37847;SDS011;23688;33.130;-117.188;2022-10-16T03:36:41;11.35;;;5.05;;
37847;SDS011;23688;33.130;-117.188;2022-10-16T03:39:08;10.68;;;4.97;;
37847;SDS011;23688;33.130;-117.188;2022-10-16T03:41:34;12.77;;;5.53;;
37847;SDS011;23688;33.130;-117.188;2022-10-16T03:44:00;19.00;;;6.32;;
37847;SDS011;23688;33.130;-117.188;2022-10-16T03:46:26;16.17;;;6.68;;
37847;SDS011;23688;33.130;-117.188;2022-10-16T03:48:53;20.15;;;7.80;;
37847;SDS011;23688;33.130;-117.188;2022-10-16T03:51:19;15.45;;;7.05;;
37847;SDS011;23688;33.130;-117.188;2022-10-16T03:53:45;16.48;;;7.53;;
37847;SDS011;23688;33.130;-117.188;2022-10-16T03:56:12;16.50;;;5.97;;
37847;SDS011;23688;33.130;-117.188;2022-10-16T03:58:39;15.43;;;5.90;;
37847;SDS011;23688;33.130;-117.188;2022-10-16T04:01:06;15.98;;;6.05;;
37847;SDS011;23688;33.130;-117.188;2022-10-16T04:03:32;14.32;;;5.72;;
37847;SDS011;23688;33.130;-117.188;2022-10-16T04:06:00;15.98;;;6.82;;
37847;SDS011;23688;33.130;-117.188;2022-10-16T04:08:26;11.40;;;5.53;;
37847;SDS011;23688;33.130;-117.188;2022-10-16T04:10:52;16.55;;;6.30;;
37847;SDS011;23688;33.130;-117.188;2022-10-16T04:13:19;14.35;;;6.45;;
37847;SDS011;23688;33.130;-117.188;2022-10-16T04:15:45;18.77;;;6.60;;
37847;SDS011;23688;33.130;-117.188;2022-10-16T04:18:11;22.35;;;6.47;;
37847;SDS011;23688;33.130;-117.188;2022-10-16T04:20:38;14.57;;;6.60;;
37847;SDS011;23688;33.130;-117.188;2022-10-16T04:23:05;16.73;;;6.10;;
37847;SDS011;23688;33.130;-117.188;2022-10-16T04:25:31;12.77;;;5.97;;
37847;SDS011;23688;33.130;-117.188;2022-10-16T04:27:58;12.80;;;6.47;;
37847;SDS011;23688;33.130;-117.188;2022-10-16T04:30:24;14.65;;;6.30;;
37847;SDS011;23688;33.130;-117.188;2022-10-16T04:32:51;13.82;;;6.03;;
37847;SDS011;23688;33.130;-117.188;2022-10-16T04:35:18;14.48;;;5.72;;
37847;SDS011;23688;33.130;-117.188;2022-10-16T04:37:48;12.98;;;5.47;;
37847;SDS011;23688;33.130;-117.188;2022-10-16T04:40:15;16.35;;;6.22;;
37847;SDS011;23688;33.130;-117.188;2022-10-16T04:42:42;20.42;;;5.90;;
37847;SDS011;23688;33.130;-117.188;2022-10-16T04:45:09;12.95;;;6.88;;
37847;SDS011;23688;33.130;-117.188;2022-10-16T04:47:35;11.82;;;5.80;;
37847;SDS011;23688;33.130;-117.188;2022-10-16T04:50:02;12.73;;;5.90;;
37847;SDS011;23688;33.130;-117.188;2022-10-16T04:52:29;14.38;;;6.13;;
37847;SDS011;23688;33.130;-117.188;2022-10-16T04:54:57;16.03;;;5.53;;
37847;SDS011;23688;33.130;-117.188;2022-10-16T04:57:26;19.45;;;6.07;;
37847;SDS011;23688;33.130;-117.188;2022-10-16T04:59:53;17.13;;;5.03;;
37847;SDS011;23688;33.130;-117.188;2022-10-16T05:02:19;14.25;;;5.38;;
37847;SDS011;23688;33.130;-117.188;2022-10-16T05:04:46;13.73;;;5.03;;
37847;SDS011;23688;33.130;-117.188;2022-10-16T05:07:12;11.68;;;4.85;;
37847;SDS011;23688;33.130;-117.188;2022-10-16T05:09:38;10.52;;;5.20;;
37847;SDS011;23688;33.130;-117.188;2022-10-16T05:12:04;10.95;;;4.80;;
37847;SDS011;23688;33.130;-117.188;2022-10-16T05:14:32;21.13;;;5.03;;
37847;SDS011;23688;33.130;-117.188;2022-10-16T05:16:59;17.45;;;4.63;;
37847;SDS011;23688;33.130;-117.188;2022-10-16T05:19:26;11.32;;;4.32;;
37847;SDS011;23688;33.130;-117.188;2022-10-16T05:21:52;18.40;;;5.43;;
37847;SDS011;23688;33.130;-117.188;2022-10-16T05:24:18;12.13;;;5.25;;
37847;SDS011;23688;33.130;-117.188;2022-10-16T05:26:44;10.73;;;5.78;;
37847;SDS011;23688;33.130;-117.188;2022-10-16T05:29:10;20.30;;;5.18;;
37847;SDS011;23688;33.130;-117.188;2022-10-16T05:31:37;23.10;;;5.72;;
37847;SDS011;23688;33.130;-117.188;2022-10-16T05:34:03;15.25;;;4.90;;
37847;SDS011;23688;33.130;-117.188;2022-10-16T05:36:29;12.75;;;5.95;;
37847;SDS011;23688;33.130;-117.188;2022-10-16T05:38:56;16.60;;;5.97;;
37847;SDS011;23688;33.130;-117.188;2022-10-16T05:41:22;15.82;;;5.00;;
37847;SDS011;23688;33.130;-117.188;2022-10-16T05:43:50;17.60;;;5.30;;
37847;SDS011;23688;33.130;-117.188;2022-10-16T05:46:17;11.13;;;4.68;;
37847;SDS011;23688;33.130;-117.188;2022-10-16T05:48:44;10.02;;;4.60;;
37847;SDS011;23688;33.130;-117.188;2022-10-16T05:51:11;19.38;;;5.40;;
37847;SDS011;23688;33.130;-117.188;2022-10-16T05:53:38;15.00;;;4.67;;
37847;SDS011;23688;33.130;-117.188;2022-10-16T05:56:06;11.63;;;4.38;;
37847;SDS011;23688;33.130;-117.188;2022-10-16T05:58:36;9.52;;;4.32;;
37847;SDS011;23688;33.130;-117.188;2022-10-16T06:01:06;9.82;;;4.68;;
37847;SDS011;23688;33.130;-117.188;2022-10-16T06:03:35;16.95;;;5.53;;
37847;SDS011;23688;33.130;-117.188;2022-10-16T06:08:40;10.43;;;4.05;;
37847;SDS011;23688;33.130;-117.188;2022-10-16T06:11:08;20.17;;;5.07;;
37847;SDS011;23688;33.130;-117.188;2022-10-16T06:13:36;14.30;;;5.57;;
37847;SDS011;23688;33.130;-117.188;2022-10-16T06:16:04;8.35;;;4.57;;
37847;SDS011;23688;33.130;-117.188;2022-10-16T06:18:31;12.32;;;5.20;;
37847;SDS011;23688;33.130;-117.188;2022-10-16T06:20:58;10.05;;;5.57;;
37847;SDS011;23688;33.130;-117.188;2022-10-16T06:23:24;11.48;;;4.82;;
37847;SDS011;23688;33.130;-117.188;2022-10-16T06:25:53;11.23;;;4.60;;
37847;SDS011;23688;33.130;-117.188;2022-10-16T06:28:22;12.52;;;4.10;;
37847;SDS011;23688;33.130;-117.188;2022-10-16T06:30:48;13.95;;;5.22;;
37847;SDS011;23688;33.130;-117.188;2022-10-16T06:33:24;12.85;;;5.15;;
37847;SDS011;23688;33.130;-117.188;2022-10-16T06:35:50;13.02;;;4.88;;
37847;SDS011;23688;33.130;-117.188;2022-10-16T06:38:16;19.85;;;5.22;;
37847;SDS011;23688;33.130;-117.188;2022-10-16T06:40:44;11.70;;;4.93;;
37847;SDS011;23688;33.130;-117.188;2022-10-16T06:43:10;8.18;;;4.38;;
37847;SDS011;23688;33.130;-117.188;2022-10-16T06:45:39;11.63;;;4.20;;
37847;SDS011;23688;33.130;-117.188;2022-10-16T06:50:31;15.85;;;5.15;;
37847;SDS011;23688;33.130;-117.188;2022-10-16T06:52:57;11.02;;;4.43;;
37847;SDS011;23688;33.130;-117.188;2022-10-16T06:55:23;11.70;;;4.15;;
37847;SDS011;23688;33.130;-117.188;2022-10-16T06:57:50;11.07;;;4.40;;
37847;SDS011;23688;33.130;-117.188;2022-10-16T07:00:16;8.18;;;4.80;;
37847;SDS011;23688;33.130;-117.188;2022-10-16T07:02:42;10.20;;;4.80;;
37847;SDS011;23688;33.130;-117.188;2022-10-16T07:05:09;11.13;;;5.20;;
37847;SDS011;23688;33.130;-117.188;2022-10-16T07:07:35;11.77;;;4.10;;
37847;SDS011;23688;33.130;-117.188;2022-10-16T07:10:01;9.60;;;4.78;;
37847;SDS011;23688;33.130;-117.188;2022-10-16T07:12:28;7.45;;;3.80;;
37847;SDS011;23688;33.130;-117.188;2022-10-16T07:14:54;11.77;;;5.35;;
37847;SDS011;23688;33.130;-117.188;2022-10-16T07:17:21;14.05;;;4.93;;
37847;SDS011;23688;33.130;-117.188;2022-10-16T07:19:47;16.13;;;4.55;;
37847;SDS011;23688;33.130;-117.188;2022-10-16T07:22:14;12.15;;;4.63;;
37847;SDS011;23688;33.130;-117.188;2022-10-16T07:24:40;7.70;;;4.18;;
37847;SDS011;23688;33.130;-117.188;2022-10-16T07:27:07;12.00;;;4.90;;
37847;SDS011;23688;33.130;-117.188;2022-10-16T07:29:33;13.52;;;4.97;;
37847;SDS011;23688;33.130;-117.188;2022-10-16T07:31:59;8.45;;;4.55;;
37847;SDS011;23688;33.130;-117.188;2022-10-16T07:34:27;8.00;;;4.65;;
37847;SDS011;23688;33.130;-117.188;2022-10-16T07:36:53;13.63;;;5.20;;
37847;SDS011;23688;33.130;-117.188;2022-10-16T07:39:19;14.35;;;4.88;;
37847;SDS011;23688;33.130;-117.188;2022-10-16T07:41:46;13.27;;;4.78;;
37847;SDS011;23688;33.130;-117.188;2022-10-16T07:44:12;16.08;;;5.50;;
37847;SDS011;23688;33.130;-117.188;2022-10-16T07:46:38;16.50;;;5.40;;
37847;SDS011;23688;33.130;-117.188;2022-10-16T07:49:05;11.23;;;5.57;;
37847;SDS011;23688;33.130;-117.188;2022-10-16T07:51:31;16.85;;;5.97;;
37847;SDS011;23688;33.130;-117.188;2022-10-16T07:53:58;10.27;;;5.82;;
37847;SDS011;23688;33.130;-117.188;2022-10-16T07:56:24;9.05;;;5.40;;
37847;SDS011;23688;33.130;-117.188;2022-10-16T07:58:51;17.20;;;6.80;;
37847;SDS011;23688;33.130;-117.188;2022-10-16T08:01:17;14.63;;;6.47;;
37847;SDS011;23688;33.130;-117.188;2022-10-16T08:03:45;10.38;;;6.25;;
37847;SDS011;23688;33.130;-117.188;2022-10-16T08:06:13;10.75;;;6.07;;
37847;SDS011;23688;33.130;-117.188;2022-10-16T08:08:40;13.13;;;6.15;;
37847;SDS011;23688;33.130;-117.188;2022-10-16T08:11:07;13.93;;;6.25;;
37847;SDS011;23688;33.130;-117.188;2022-10-16T08:13:33;15.88;;;6.32;;
37847;SDS011;23688;33.130;-117.188;2022-10-16T08:16:00;12.57;;;6.13;;
37847;SDS011;23688;33.130;-117.188;2022-10-16T08:18:27;16.75;;;6.63;;
37847;SDS011;23688;33.130;-117.188;2022-10-16T08:20:56;13.48;;;6.63;;
37847;SDS011;23688;33.130;-117.188;2022-10-16T08:23:24;17.08;;;8.48;;
37847;SDS011;23688;33.130;-117.188;2022-10-16T08:25:51;12.52;;;7.47;;
37847;SDS011;23688;33.130;-117.188;2022-10-16T08:28:19;17.05;;;8.25;;
37847;SDS011;23688;33.130;-117.188;2022-10-16T08:30:46;17.02;;;8.90;;
37847;SDS011;23688;33.130;-117.188;2022-10-16T08:33:12;13.20;;;8.18;;
37847;SDS011;23688;33.130;-117.188;2022-10-16T08:35:38;23.00;;;9.40;;
37847;SDS011;23688;33.130;-117.188;2022-10-16T08:38:05;16.52;;;7.95;;
37847;SDS011;23688;33.130;-117.188;2022-10-16T08:40:33;13.05;;;7.82;;
37847;SDS011;23688;33.130;-117.188;2022-10-16T08:43:26;18.42;;;7.43;;
37847;SDS011;23688;33.130;-117.188;2022-10-16T08:49:15;16.38;;;9.95;;
37847;SDS011;23688;33.130;-117.188;2022-10-16T08:51:43;23.73;;;9.02;;
37847;SDS011;23688;33.130;-117.188;2022-10-16T08:56:46;18.48;;;8.60;;
37847;SDS011;23688;33.130;-117.188;2022-10-16T08:59:12;17.60;;;9.40;;
37847;SDS011;23688;33.130;-117.188;2022-10-16T09:06:56;12.85;;;7.38;;
37847;SDS011;23688;33.130;-117.188;2022-10-16T09:12:21;18.80;;;6.93;;
37847;SDS011;23688;33.130;-117.188;2022-10-16T09:17:44;10.32;;;5.88;;
37847;SDS011;23688;33.130;-117.188;2022-10-16T09:23:16;10.02;;;5.95;;
37847;SDS011;23688;33.130;-117.188;2022-10-16T09:25:53;14.73;;;6.35;;
37847;SDS011;23688;33.130;-117.188;2022-10-16T09:28:21;13.10;;;5.15;;
37847;SDS011;23688;33.130;-117.188;2022-10-16T09:30:48;13.70;;;5.38;;
37847;SDS011;23688;33.130;-117.188;2022-10-16T09:33:15;11.30;;;5.93;;
37847;SDS011;23688;33.130;-117.188;2022-10-16T09:38:21;8.60;;;4.75;;
37847;SDS011;23688;33.130;-117.188;2022-10-16T09:40:53;10.50;;;4.90;;
37847;SDS011;23688;33.130;-117.188;2022-10-16T09:43:42;7.45;;;4.85;;
37847;SDS011;23688;33.130;-117.188;2022-10-16T09:46:26;13.07;;;6.18;;
37847;SDS011;23688;33.130;-117.188;2022-10-16T09:48:59;12.20;;;6.10;;
37847;SDS011;23688;33.130;-117.188;2022-10-16T09:51:34;16.92;;;6.28;;
37847;SDS011;23688;33.130;-117.188;2022-10-16T09:54:12;10.55;;;5.80;;
37847;SDS011;23688;33.130;-117.188;2022-10-16T09:59:17;12.07;;;6.45;;
37847;SDS011;23688;33.130;-117.188;2022-10-16T10:01:48;14.37;;;6.37;;
37847;SDS011;23688;33.130;-117.188;2022-10-16T10:04:16;14.75;;;7.07;;
37847;SDS011;23688;33.130;-117.188;2022-10-16T10:06:48;16.33;;;6.72;;
37847;SDS011;23688;33.130;-117.188;2022-10-16T10:09:26;15.50;;;7.60;;
37847;SDS011;23688;33.130;-117.188;2022-10-16T10:11:58;13.23;;;6.65;;
37847;SDS011;23688;33.130;-117.188;2022-10-16T10:14:28;17.13;;;7.53;;
37847;SDS011;23688;33.130;-117.188;2022-10-16T10:17:10;11.45;;;6.57;;
37847;SDS011;23688;33.130;-117.188;2022-10-16T10:19:49;16.17;;;6.70;;
37847;SDS011;23688;33.130;-117.188;2022-10-16T10:22:19;16.20;;;7.35;;
37847;SDS011;23688;33.130;-117.188;2022-10-16T10:30:15;13.13;;;7.40;;
37847;SDS011;23688;33.130;-117.188;2022-10-16T10:35:24;16.63;;;7.20;;
37847;SDS011;23688;33.130;-117.188;2022-10-16T10:38:48;13.65;;;6.07;;
37847;SDS011;23688;33.130;-117.188;2022-10-16T10:55:21;12.23;;;6.25;;
37847;SDS011;23688;33.130;-117.188;2022-10-16T11:01:14;12.60;;;5.25;;
37847;SDS011;23688;33.130;-117.188;2022-10-16T11:04:09;12.60;;;4.97;;
37847;SDS011;23688;33.130;-117.188;2022-10-16T11:09:23;10.35;;;5.22;;
37847;SDS011;23688;33.130;-117.188;2022-10-16T11:12:00;14.95;;;5.63;;
37847;SDS011;23688;33.130;-117.188;2022-10-16T11:17:52;10.60;;;5.03;;
37847;SDS011;23688;33.130;-117.188;2022-10-16T11:20:26;13.50;;;5.15;;
37847;SDS011;23688;33.130;-117.188;2022-10-16T11:23:04;8.75;;;5.25;;
37847;SDS011;23688;33.130;-117.188;2022-10-16T11:25:32;6.28;;;4.43;;
37847;SDS011;23688;33.130;-117.188;2022-10-16T11:28:11;10.07;;;5.43;;
37847;SDS011;23688;33.130;-117.188;2022-10-16T11:30:47;13.02;;;5.40;;
37847;SDS011;23688;33.130;-117.188;2022-10-16T11:33:27;8.57;;;5.28;;
37847;SDS011;23688;33.130;-117.188;2022-10-16T11:36:31;8.23;;;4.72;;
37847;SDS011;23688;33.130;-117.188;2022-10-16T11:41:53;15.60;;;6.00;;
37847;SDS011;23688;33.130;-117.188;2022-10-16T11:50:20;12.93;;;5.78;;
37847;SDS011;23688;33.130;-117.188;2022-10-16T11:55:42;9.95;;;5.85;;
37847;SDS011;23688;33.130;-117.188;2022-10-16T12:04:30;10.15;;;6.00;;
37847;SDS011;23688;33.130;-117.188;2022-10-16T12:06:52;14.05;;;6.07;;
37847;SDS011;23688;33.130;-117.188;2022-10-16T12:09:36;13.52;;;5.82;;
37847;SDS011;23688;33.130;-117.188;2022-10-16T12:12:05;9.88;;;5.22;;
37847;SDS011;23688;33.130;-117.188;2022-10-16T12:14:59;8.77;;;5.25;;
37847;SDS011;23688;33.130;-117.188;2022-10-16T12:17:37;11.18;;;5.70;;
37847;SDS011;23688;33.130;-117.188;2022-10-16T12:22:49;9.88;;;5.68;;
37847;SDS011;23688;33.130;-117.188;2022-10-16T12:25:30;7.38;;;4.90;;
37847;SDS011;23688;33.130;-117.188;2022-10-16T12:28:00;13.85;;;6.60;;
37847;SDS011;23688;33.130;-117.188;2022-10-16T12:30:34;9.02;;;6.13;;
37847;SDS011;23688;33.130;-117.188;2022-10-16T12:33:05;12.32;;;6.05;;
37847;SDS011;23688;33.130;-117.188;2022-10-16T12:35:45;16.45;;;6.25;;
37847;SDS011;23688;33.130;-117.188;2022-10-16T12:38:19;9.48;;;5.35;;
37847;SDS011;23688;33.130;-117.188;2022-10-16T12:41:09;11.52;;;5.80;;
37847;SDS011;23688;33.130;-117.188;2022-10-16T12:43:41;9.52;;;5.30;;
37847;SDS011;23688;33.130;-117.188;2022-10-16T12:48:41;8.35;;;4.90;;
37847;SDS011;23688;33.130;-117.188;2022-10-16T12:54:05;9.32;;;5.78;;
37847;SDS011;23688;33.130;-117.188;2022-10-16T13:07:54;14.35;;;5.97;;
37847;SDS011;23688;33.130;-117.188;2022-10-16T13:13:29;12.73;;;5.90;;
37847;SDS011;23688;33.130;-117.188;2022-10-16T13:21:49;8.68;;;5.07;;
37847;SDS011;23688;33.130;-117.188;2022-10-16T13:24:31;13.65;;;5.25;;
37847;SDS011;23688;33.130;-117.188;2022-10-16T13:27:24;8.25;;;5.10;;
37847;SDS011;23688;33.130;-117.188;2022-10-16T13:29:52;13.55;;;4.47;;
37847;SDS011;23688;33.130;-117.188;2022-10-16T13:32:26;9.02;;;4.30;;
37847;SDS011;23688;33.130;-117.188;2022-10-16T13:34:52;6.03;;;4.25;;
37847;SDS011;23688;33.130;-117.188;2022-10-16T13:37:21;8.57;;;4.13;;
37847;SDS011;23688;33.130;-117.188;2022-10-16T13:39:50;6.18;;;4.35;;
37847;SDS011;23688;33.130;-117.188;2022-10-16T13:42:22;9.07;;;4.13;;
37847;SDS011;23688;33.130;-117.188;2022-10-16T13:44:52;9.65;;;3.50;;
37847;SDS011;23688;33.130;-117.188;2022-10-16T13:47:23;9.00;;;4.40;;
37847;SDS011;23688;33.130;-117.188;2022-10-16T13:52:26;7.95;;;3.78;;
37847;SDS011;23688;33.130;-117.188;2022-10-16T13:54:53;6.68;;;3.53;;
37847;SDS011;23688;33.130;-117.188;2022-10-16T13:57:21;8.05;;;3.45;;
37847;SDS011;23688;33.130;-117.188;2022-10-16T13:59:49;8.55;;;4.70;;
37847;SDS011;23688;33.130;-117.188;2022-10-16T14:02:35;10.32;;;4.00;;
37847;SDS011;23688;33.130;-117.188;2022-10-16T14:05:07;4.78;;;3.20;;
37847;SDS011;23688;33.130;-117.188;2022-10-16T14:07:35;5.30;;;3.40;;
37847;SDS011;23688;33.130;-117.188;2022-10-16T14:10:04;7.88;;;3.58;;
37847;SDS011;23688;33.130;-117.188;2022-10-16T14:12:40;8.10;;;4.10;;
37847;SDS011;23688;33.130;-117.188;2022-10-16T14:15:15;9.43;;;3.88;;
37847;SDS011;23688;33.130;-117.188;2022-10-16T14:17:44;19.77;;;4.60;;
37847;SDS011;23688;33.130;-117.188;2022-10-16T14:20:14;5.45;;;3.38;;
37847;SDS011;23688;33.130;-117.188;2022-10-16T14:22:41;9.65;;;4.25;;
37847;SDS011;23688;33.130;-117.188;2022-10-16T14:27:57;11.35;;;4.57;;
37847;SDS011;23688;33.130;-117.188;2022-10-16T14:30:50;11.52;;;4.78;;
37847;SDS011;23688;33.130;-117.188;2022-10-16T14:33:23;7.22;;;4.47;;
37847;SDS011;23688;33.130;-117.188;2022-10-16T14:36:03;11.60;;;4.85;;
37847;SDS011;23688;33.130;-117.188;2022-10-16T14:38:33;17.45;;;6.15;;
37847;SDS011;23688;33.130;-117.188;2022-10-16T14:41:01;12.57;;;5.65;;
37847;SDS011;23688;33.130;-117.188;2022-10-16T14:43:39;15.77;;;5.88;;
37847;SDS011;23688;33.130;-117.188;2022-10-16T14:46:14;12.60;;;5.43;;
37847;SDS011;23688;33.130;-117.188;2022-10-16T14:48:43;11.85;;;6.10;;
37847;SDS011;23688;33.130;-117.188;2022-10-16T14:51:16;9.85;;;5.05;;
37847;SDS011;23688;33.130;-117.188;2022-10-16T14:53:44;8.88;;;4.50;;
37847;SDS011;23688;33.130;-117.188;2022-10-16T14:56:21;7.35;;;3.97;;
37847;SDS011;23688;33.130;-117.188;2022-10-16T14:58:54;5.38;;;3.90;;
37847;SDS011;23688;33.130;-117.188;2022-10-16T15:01:21;7.75;;;4.53;;
37847;SDS011;23688;33.130;-117.188;2022-10-16T15:03:47;8.95;;;4.20;;
37847;SDS011;23688;33.130;-117.188;2022-10-16T15:06:14;5.50;;;3.50;;
37847;SDS011;23688;33.130;-117.188;2022-10-16T15:08:42;10.43;;;4.30;;
37847;SDS011;23688;33.130;-117.188;2022-10-16T15:11:18;9.32;;;3.55;;
37847;SDS011;23688;33.130;-117.188;2022-10-16T15:13:45;7.20;;;3.80;;
37847;SDS011;23688;33.130;-117.188;2022-10-16T15:16:13;12.05;;;4.25;;
37847;SDS011;23688;33.130;-117.188;2022-10-16T15:18:41;11.00;;;5.10;;
37847;SDS011;23688;33.130;-117.188;2022-10-16T15:21:07;7.72;;;4.40;;
37847;SDS011;23688;33.130;-117.188;2022-10-16T15:23:35;7.97;;;4.75;;
37847;SDS011;23688;33.130;-117.188;2022-10-16T15:26:02;9.07;;;3.88;;
37847;SDS011;23688;33.130;-117.188;2022-10-16T15:28:28;6.97;;;3.60;;
37847;SDS011;23688;33.130;-117.188;2022-10-16T15:30:55;9.45;;;3.80;;
37847;SDS011;23688;33.130;-117.188;2022-10-16T15:33:26;7.53;;;3.72;;
37847;SDS011;23688;33.130;-117.188;2022-10-16T15:35:58;6.97;;;3.40;;
37847;SDS011;23688;33.130;-117.188;2022-10-16T15:38:25;7.68;;;3.50;;
37847;SDS011;23688;33.130;-117.188;2022-10-16T15:40:55;7.43;;;4.35;;
37847;SDS011;23688;33.130;-117.188;2022-10-16T15:43:24;13.38;;;4.15;;
37847;SDS011;23688;33.130;-117.188;2022-10-16T15:46:04;7.43;;;3.85;;
37847;SDS011;23688;33.130;-117.188;2022-10-16T15:48:32;7.35;;;3.58;;
37847;SDS011;23688;33.130;-117.188;2022-10-16T15:51:06;11.15;;;4.30;;
37847;SDS011;23688;33.130;-117.188;2022-10-16T15:53:33;7.40;;;3.33;;
37847;SDS011;23688;33.130;-117.188;2022-10-16T15:56:07;7.60;;;2.60;;
37847;SDS011;23688;33.130;-117.188;2022-10-16T15:58:35;8.52;;;3.17;;
37847;SDS011;23688;33.130;-117.188;2022-10-16T16:01:01;5.78;;;2.63;;
37847;SDS011;23688;33.130;-117.188;2022-10-16T16:03:32;3.60;;;2.63;;
37847;SDS011;23688;33.130;-117.188;2022-10-16T16:06:03;7.50;;;3.15;;
37847;SDS011;23688;33.130;-117.188;2022-10-16T16:08:34;6.68;;;3.45;;
37847;SDS011;23688;33.130;-117.188;2022-10-16T16:11:02;10.55;;;2.78;;
37847;SDS011;23688;33.130;-117.188;2022-10-16T16:13:32;6.70;;;2.83;;
37847;SDS011;23688;33.130;-117.188;2022-10-16T16:15:59;5.55;;;2.70;;
37847;SDS011;23688;33.130;-117.188;2022-10-16T16:18:25;8.45;;;3.28;;
37847;SDS011;23688;33.130;-117.188;2022-10-16T16:20:51;6.28;;;2.72;;
37847;SDS011;23688;33.130;-117.188;2022-10-16T16:23:18;8.70;;;3.60;;
37847;SDS011;23688;33.130;-117.188;2022-10-16T16:25:45;5.85;;;3.10;;
37847;SDS011;23688;33.130;-117.188;2022-10-16T16:28:27;8.10;;;2.85;;